createdAt,value
2018-08-22T06:10:14.153Z,8.30
2018-08-22T06:15:11.892Z,8.83
2018-08-22T06:20:09.625Z,9.78
2018-08-22T06:25:07.420Z,9.10
2018-08-22T06:30:06.637Z,8.78
2018-08-22T06:35:05.058Z,8.30
2018-08-22T06:40:03.282Z,8.45
2018-08-22T06:45:01.153Z,8.43
2018-08-22T06:49:58.989Z,7.65
2018-08-22T06:54:56.896Z,9.03
2018-08-22T06:59:54.609Z,9.38
2018-08-22T07:04:52.395Z,9.48
2018-08-22T07:09:50.149Z,8.28
2018-08-22T07:14:47.974Z,8.40
2018-08-22T07:19:45.685Z,8.23
2018-08-22T07:24:43.397Z,7.97
2018-08-22T07:29:41.231Z,8.20
2018-08-22T07:34:39.006Z,7.50
2018-08-22T07:39:36.714Z,8.70
2018-08-22T07:44:34.462Z,7.67
2018-08-22T07:49:32.303Z,7.17
2018-08-22T07:54:44.150Z,8.30
2018-08-22T07:59:41.862Z,7.60
2018-08-22T08:04:39.568Z,7.20
2018-08-22T08:09:37.274Z,8.08
2018-08-22T08:19:58.096Z,8.33
2018-08-22T08:24:55.820Z,8.63
2018-08-22T08:29:53.533Z,7.97
2018-08-22T08:34:51.250Z,9.13
2018-08-22T08:39:48.965Z,9.05
2018-08-22T08:45:03.801Z,8.03
2018-08-22T08:50:01.487Z,7.80
2018-08-22T08:54:59.241Z,8.10
2018-08-22T08:59:56.959Z,7.72
2018-08-22T09:04:58.030Z,7.47
2018-08-22T09:09:55.769Z,8.43
2018-08-22T09:14:57.501Z,8.40
2018-08-22T09:19:55.209Z,7.20
2018-08-22T09:24:52.889Z,8.65
2018-08-22T09:29:50.645Z,8.43
2018-08-22T09:34:48.338Z,7.47
2018-08-22T09:39:46.085Z,7.95
2018-08-22T09:44:43.767Z,8.08
2018-08-22T09:49:41.481Z,7.92
2018-08-22T09:54:53.414Z,6.42
2018-08-22T09:59:51.284Z,6.87
2018-08-22T10:04:48.966Z,7.53
2018-08-22T10:09:46.687Z,7.37
2018-08-22T10:14:44.394Z,7.42
2018-08-22T10:19:42.309Z,7.55
2018-08-22T10:24:39.942Z,7.92
2018-08-22T10:29:37.706Z,7.40
2018-08-22T10:34:35.433Z,7.35
2018-08-22T10:39:33.250Z,7.25
2018-08-22T10:44:31.053Z,7.40
2018-08-22T10:49:28.732Z,6.85
2018-08-22T10:54:26.515Z,6.37
2018-08-22T10:59:24.281Z,6.30
2018-08-22T11:04:21.994Z,6.53
2018-08-22T11:09:19.709Z,6.87
2018-08-22T11:14:17.434Z,6.92
2018-08-22T11:19:15.133Z,7.40
2018-08-22T11:24:24.345Z,6.78
2018-08-22T11:29:33.440Z,6.87
2018-08-22T11:34:47.746Z,6.85
2018-08-22T11:39:46.809Z,7.17
2018-08-22T11:44:44.525Z,6.67
2018-08-22T11:49:43.932Z,6.95
2018-08-22T11:54:48.637Z,7.12
2018-08-22T11:59:46.387Z,6.70
2018-08-22T12:04:44.117Z,6.40
2018-08-22T12:09:41.865Z,6.20
2018-08-22T12:14:39.577Z,6.70
2018-08-22T12:19:37.310Z,6.80
2018-08-22T12:24:35.058Z,7.15
2018-08-22T12:29:33.060Z,7.00
2018-08-22T12:34:31.026Z,6.85
2018-08-22T12:39:28.738Z,6.42
2018-08-22T12:44:26.443Z,7.20
2018-08-22T12:49:24.277Z,6.80
2018-08-22T12:54:22.053Z,6.87
2018-08-22T12:59:19.864Z,7.00
2018-08-22T13:04:17.554Z,7.03
2018-08-22T13:09:15.281Z,6.47
2018-08-22T13:14:12.998Z,6.83
2018-08-22T13:19:10.705Z,6.70
2018-08-22T13:24:08.406Z,5.87
2018-08-22T13:29:06.177Z,7.60
2018-08-22T13:34:04.074Z,7.67
2018-08-22T13:39:01.926Z,6.65
2018-08-22T13:44:00.324Z,6.83
2018-08-22T13:48:58.094Z,6.60
2018-08-22T13:53:55.890Z,7.17
2018-08-22T13:58:53.745Z,6.80
2018-08-22T14:03:51.537Z,6.55
2018-08-22T14:08:49.242Z,6.62
2018-08-22T14:13:46.961Z,7.08
2018-08-22T14:18:44.689Z,7.00
2018-08-22T14:23:42.418Z,7.30
2018-08-22T14:28:40.172Z,7.22
2018-08-22T14:33:38.030Z,6.90
2018-08-22T14:38:35.933Z,6.70
2018-08-22T14:43:33.709Z,6.67
2018-08-22T14:48:31.513Z,6.40
2018-08-22T14:53:29.317Z,6.42
2018-08-22T14:58:27.145Z,6.58
2018-08-22T15:03:25.515Z,6.20
2018-08-22T15:08:23.082Z,5.92
2018-08-22T15:13:20.786Z,6.15
2018-08-22T15:18:18.509Z,6.45
2018-08-22T15:23:16.189Z,6.58
2018-08-22T15:28:13.898Z,6.60
2018-08-22T15:33:11.633Z,6.65
2018-08-22T15:38:09.417Z,6.53
2018-08-22T15:43:07.474Z,6.60
2018-08-22T15:48:05.222Z,6.60
2018-08-22T15:53:02.982Z,6.28
2018-08-22T15:58:01.970Z,6.58
2018-08-22T16:03:01.025Z,6.55
2018-08-22T16:07:59.069Z,6.42
2018-08-22T16:12:56.818Z,6.80
2018-08-22T16:17:56.353Z,6.30
2018-08-22T16:22:54.469Z,6.90
2018-08-22T16:27:52.290Z,6.40
2018-08-22T16:32:50.058Z,6.22
2018-08-22T16:38:03.455Z,7.17
2018-08-22T16:43:01.287Z,6.92
2018-08-22T16:47:59.047Z,6.62
2018-08-22T16:52:56.823Z,6.25
2018-08-22T16:57:54.678Z,6.33
2018-08-22T17:02:52.333Z,6.90
2018-08-22T17:07:50.048Z,6.12
2018-08-22T17:12:48.377Z,6.95
2018-08-22T17:17:46.065Z,6.90
2018-08-22T17:22:43.758Z,7.55
2018-08-22T17:27:41.422Z,6.42
2018-08-22T17:32:39.105Z,6.40
2018-08-22T17:37:41.982Z,6.45
2018-08-22T17:42:39.663Z,6.47
2018-08-22T17:47:37.488Z,7.03
2018-08-22T17:52:35.261Z,6.20
2018-08-22T17:57:33.010Z,6.22
2018-08-22T18:02:30.819Z,6.22
2018-08-22T18:07:28.593Z,7.00
2018-08-22T18:12:27.213Z,6.90
2018-08-22T18:17:24.969Z,6.33
2018-08-22T18:22:26.029Z,7.70
2018-08-22T18:27:23.929Z,7.67
2018-08-22T18:32:21.609Z,7.33
2018-08-22T18:37:19.287Z,7.37
2018-08-22T18:42:16.985Z,6.60
2018-08-22T18:47:14.776Z,7.03
2018-08-22T18:52:15.029Z,7.90
2018-08-22T18:57:13.105Z,10.48
2018-08-22T19:02:11.407Z,7.00
